Time;durP1;ratioP1;P1;durP2;ratioP2;P2;SDS_P1;SDS_P2;PMS_P1;PMS_P2;Temp;Humidity;BMP_temperature;BMP_pressure;BME280_temperature;BME280_humidity;BME280_pressure;Samples;Min_cycle;Max_cycle;Signal;HPM_P1;HPM_P2
2022/06/14 00:01:11;;;;;;;7.53;5.32;;;;;;;-144.65;100.00;64500.88;5049812;28;20024;-73
2022/06/14 00:03:40;;;;;;;8.20;5.25;;;;;;;-144.65;100.00;64500.88;5049692;28;20047;-73
2022/06/14 00:06:10;;;;;;;7.60;5.30;;;;;;;-144.65;100.00;64500.88;5038562;28;20029;-76
2022/06/14 00:08:36;;;;;;;9.38;5.53;;;;;;;-144.65;100.00;64500.88;5039521;28;20053;-74
2022/06/14 00:11:17;;;;;;;9.05;4.85;;;;;;;-144.65;100.00;64500.88;5050488;28;20079;-74
2022/06/14 00:13:43;;;;;;;5.47;4.15;;;;;;;-144.65;100.00;64500.88;5044014;28;20047;-74
2022/06/14 00:16:10;;;;;;;5.22;4.18;;;;;;;-144.65;100.00;64500.88;5048989;28;20104;-73
2022/06/14 00:18:36;;;;;;;7.47;4.72;;;;;;;-144.65;100.00;64500.88;5043332;28;20072;-73
2022/06/14 00:21:02;;;;;;;9.38;4.80;;;;;;;-144.65;100.00;64500.88;5032538;28;20537;-73
2022/06/14 00:23:29;;;;;;;9.90;5.03;;;;;;;-144.65;100.00;64500.88;5032504;28;20025;-73
2022/06/14 00:25:57;;;;;;;8.70;5.57;;;;;;;-144.65;100.00;64500.88;5048633;28;20497;-74
2022/06/14 00:28:25;;;;;;;10.77;4.75;;;;;;;-144.65;100.00;64500.88;5049415;28;20043;-73
2022/06/14 00:30:56;;;;;;;8.90;4.85;;;;;;;-144.65;100.00;64500.88;5049483;28;20116;-73
2022/06/14 00:33:21;;;;;;;8.90;4.30;;;;;;;-144.65;100.00;64500.88;5031173;28;20040;-73
2022/06/14 00:35:47;;;;;;;6.22;4.18;;;;;;;-144.65;100.00;64500.88;5043888;28;20471;-72
2022/06/14 00:38:14;;;;;;;12.52;4.72;;;;;;;-144.65;100.00;64500.88;5029328;28;20025;-74
2022/06/14 00:40:48;;;;;;;6.75;3.83;;;;;;;-144.65;100.00;64500.88;5029320;28;20064;-73
2022/06/14 00:43:16;;;;;;;12.65;3.85;;;;;;;-144.65;100.00;64500.88;5029751;28;20037;-73
2022/06/14 00:45:41;;;;;;;8.60;4.10;;;;;;;-144.65;100.00;64500.88;5028951;28;20079;-74
2022/06/14 00:48:15;;;;;;;5.57;3.85;;;;;;;-144.65;100.00;64500.88;5039812;28;20041;-74
2022/06/14 00:50:50;;;;;;;8.27;4.03;;;;;;;-144.65;100.00;64500.88;5011725;28;20517;-73
2022/06/14 00:53:28;;;;;;;6.22;4.32;;;;;;;-144.65;100.00;64500.88;5029083;28;20080;-73
2022/06/14 00:56:05;;;;;;;6.38;4.15;;;;;;;-144.65;100.00;64500.88;5029836;28;20119;-73
2022/06/14 00:58:41;;;;;;;6.47;4.18;;;;;;;-144.65;100.00;64500.88;5029612;28;20048;-73
2022/06/14 01:01:11;;;;;;;4.88;3.70;;;;;;;-144.65;100.00;64500.88;5030226;28;20029;-73
2022/06/14 01:03:50;;;;;;;6.25;4.10;;;;;;;-144.65;100.00;64500.88;5029697;28;20053;-73
2022/06/14 01:06:24;;;;;;;6.45;3.95;;;;;;;-144.65;100.00;64500.88;5030617;28;20116;-73
2022/06/14 01:08:56;;;;;;;5.72;3.92;;;;;;;-144.65;100.00;64500.88;5049124;28;20029;-73
2022/06/14 01:11:42;;;;;;;4.97;4.00;;;;;;;-144.65;100.00;64500.88;5047554;28;20020;-73
2022/06/14 01:14:13;;;;;;;6.80;4.20;;;;;;;-144.65;100.00;64500.88;5049080;28;20113;-73
2022/06/14 01:16:39;;;;;;;7.25;3.70;;;;;;;-144.65;100.00;64500.88;5048824;28;20029;-73
2022/06/14 01:19:11;;;;;;;8.00;3.85;;;;;;;-144.65;100.00;64500.88;5030859;28;20684;-73
2022/06/14 01:21:37;;;;;;;6.55;3.80;;;;;;;-144.65;100.00;64500.88;5049307;28;20045;-74
2022/06/14 01:24:02;;;;;;;7.18;3.65;;;;;;;-144.65;100.00;64500.88;5048660;28;20039;-74
2022/06/14 01:26:30;;;;;;;5.93;3.72;;;;;;;-144.65;100.00;64500.88;5049240;28;20108;-74
2022/06/14 01:29:01;;;;;;;5.88;4.35;;;;;;;-144.65;100.00;64500.88;5048677;28;20082;-74
2022/06/14 01:31:29;;;;;;;5.88;3.85;;;;;;;-144.65;100.00;64500.88;5049342;28;20474;-73
2022/06/14 01:33:59;;;;;;;6.78;3.78;;;;;;;-144.65;100.00;64500.88;5048876;28;20029;-73
2022/06/14 01:36:29;;;;;;;4.07;3.15;;;;;;;-144.65;100.00;64500.88;5049003;28;20021;-73
2022/06/14 01:38:58;;;;;;;6.60;3.63;;;;;;;-144.65;100.00;64500.88;5044604;28;20032;-72
2022/06/14 01:41:44;;;;;;;8.73;3.10;;;;;;;-144.65;100.00;64500.88;5052269;28;20060;-72
2022/06/14 01:44:45;;;;;;;5.20;2.70;;;;;;;-144.65;100.00;64500.88;5032932;28;20036;-73
2022/06/14 01:47:48;;;;;;;4.57;2.80;;;;;;;-144.65;100.00;64500.88;5031328;28;20079;-73
2022/06/14 01:53:45;;;;;;;5.80;3.10;;;;;;;-144.65;100.00;64500.88;5033437;28;20043;-73
2022/06/14 01:56:13;;;;;;;4.60;3.00;;;;;;;-144.65;100.00;64500.88;5015393;28;20128;-73
2022/06/14 01:58:57;;;;;;;3.80;2.70;;;;;;;-144.65;100.00;64500.88;5033097;28;20368;-73
2022/06/14 02:01:45;;;;;;;3.70;2.80;;;;;;;-144.65;100.00;64500.88;5032347;28;20033;-73
2022/06/14 02:04:37;;;;;;;4.97;2.78;;;;;;;-144.65;100.00;64500.88;5032471;28;20033;-73
2022/06/14 02:07:25;;;;;;;4.13;2.33;;;;;;;-144.65;100.00;64500.88;5027154;28;20073;-73
2022/06/14 02:10:13;;;;;;;3.83;2.78;;;;;;;-144.65;100.00;64500.88;5031333;28;20025;-72
2022/06/14 02:12:49;;;;;;;4.25;2.72;;;;;;;-144.65;100.00;64500.88;5032972;28;20029;-73
2022/06/14 02:15:34;;;;;;;4.70;2.60;;;;;;;-144.65;100.00;64500.88;5030840;28;20033;-73
2022/06/14 02:18:26;;;;;;;3.95;2.63;;;;;;;-144.65;100.00;64500.88;5032352;28;20104;-72
2022/06/14 02:21:10;;;;;;;4.47;2.90;;;;;;;-144.65;100.00;64500.88;5024481;28;20450;-73
2022/06/14 02:23:41;;;;;;;5.10;2.85;;;;;;;-144.65;100.00;64500.88;5015375;28;20033;-73
2022/06/14 02:26:31;;;;;;;2.97;2.30;;;;;;;-144.65;100.00;64500.88;5031873;28;20037;-72
2022/06/14 02:29:05;;;;;;;4.60;2.50;;;;;;;-144.65;100.00;64500.88;5032563;28;20032;-73
2022/06/14 02:31:47;;;;;;;4.07;2.50;;;;;;;-144.65;100.00;64500.88;5032724;28;20037;-73
2022/06/14 02:34:19;;;;;;;4.07;2.58;;;;;;;-144.65;100.00;64500.88;5031088;28;20037;-73
2022/06/14 02:36:51;;;;;;;5.07;2.70;;;;;;;-144.65;100.00;64500.88;5031746;28;20030;-73
2022/06/14 02:39:22;;;;;;;4.85;2.75;;;;;;;-144.65;100.00;64500.88;5031592;28;20045;-73
2022/06/14 02:42:04;;;;;;;4.70;2.55;;;;;;;-144.65;100.00;64500.88;5031872;28;20056;-73
2022/06/14 02:44:47;;;;;;;5.93;2.53;;;;;;;-144.65;100.00;64500.88;5031315;28;20037;-73
2022/06/14 02:47:22;;;;;;;4.70;2.28;;;;;;;-144.65;100.00;64500.88;5031534;28;20407;-72
2022/06/14 02:49:57;;;;;;;3.17;2.20;;;;;;;-144.65;100.00;64500.88;5013431;28;20032;-73
2022/06/14 02:52:44;;;;;;;4.10;2.78;;;;;;;-144.65;100.00;64500.88;5031477;28;20060;-73
2022/06/14 02:55:19;;;;;;;2.97;2.22;;;;;;;-144.65;100.00;64500.88;5032053;28;20021;-73
2022/06/14 02:57:50;;;;;;;5.25;2.80;;;;;;;-144.65;100.00;64500.88;5032110;28;20102;-73
2022/06/14 03:00:20;;;;;;;6.97;2.80;;;;;;;-144.65;100.00;64500.88;5030075;28;20045;-73
2022/06/14 03:03:11;;;;;;;4.85;2.50;;;;;;;-144.65;100.00;64500.88;5031854;28;20030;-73
2022/06/14 03:05:44;;;;;;;4.80;2.50;;;;;;;-144.65;100.00;64500.88;5014366;28;20036;-73
2022/06/14 03:08:28;;;;;;;3.00;2.28;;;;;;;-144.65;100.00;64500.88;5014140;28;20546;-73
2022/06/14 03:11:09;;;;;;;4.45;3.08;;;;;;;-144.65;100.00;64500.88;5031069;28;20029;-73
2022/06/14 03:13:48;;;;;;;3.83;2.10;;;;;;;-144.65;100.00;64500.88;5031413;28;20056;-73
2022/06/14 03:16:35;;;;;;;3.33;2.38;;;;;;;-144.65;100.00;64500.88;5013625;28;20490;-73
2022/06/14 03:19:12;;;;;;;3.53;2.17;;;;;;;-144.65;100.00;64500.88;5030581;28;20560;-73
2022/06/14 03:21:50;;;;;;;6.38;2.40;;;;;;;-144.65;100.00;64500.88;5030674;28;20072;-73
2022/06/14 03:24:29;;;;;;;4.85;2.25;;;;;;;-144.65;100.00;64500.88;5012894;28;20750;-73
2022/06/14 03:27:00;;;;;;;2.83;2.10;;;;;;;-144.65;100.00;64500.88;5013145;28;20036;-73
2022/06/14 03:29:31;;;;;;;4.68;2.40;;;;;;;-144.65;100.00;64500.88;5030575;28;20466;-73
2022/06/14 03:32:09;;;;;;;4.85;2.30;;;;;;;-144.65;100.00;64500.88;5030428;28;20052;-73
2022/06/14 03:34:41;;;;;;;5.85;2.10;;;;;;;-144.65;100.00;64500.88;5031096;28;20040;-72
2022/06/14 03:37:08;;;;;;;4.78;2.33;;;;;;;-144.65;100.00;64500.88;5030869;28;20017;-73
2022/06/14 03:39:38;;;;;;;5.10;2.17;;;;;;;-144.65;100.00;64500.88;5030984;28;20021;-73
2022/06/14 03:42:07;;;;;;;5.35;2.38;;;;;;;-144.65;100.00;64500.88;5030485;28;20095;-73
2022/06/14 03:44:32;;;;;;;2.83;2.22;;;;;;;-144.65;100.00;64500.88;5030955;28;20076;-73
2022/06/14 03:47:16;;;;;;;4.75;2.35;;;;;;;-144.65;100.00;64500.88;5030199;28;20486;-73
2022/06/14 03:49:51;;;;;;;3.78;2.45;;;;;;;-144.65;100.00;64500.88;5030732;28;20112;-73
2022/06/14 03:52:28;;;;;;;3.63;2.38;;;;;;;-144.65;100.00;64500.88;5030216;28;20120;-73
2022/06/14 03:54:56;;;;;;;3.00;1.83;;;;;;;-144.65;100.00;64500.88;5030636;28;20071;-73
2022/06/14 03:57:48;;;;;;;4.68;2.38;;;;;;;-144.65;100.00;64500.88;5013045;28;20064;-73
2022/06/14 04:00:23;;;;;;;6.63;2.30;;;;;;;-144.65;100.00;64500.88;5030022;28;20053;-73
2022/06/14 04:03:32;;;;;;;4.15;2.35;;;;;;;-144.65;100.00;64500.88;5012825;28;20061;-74
2022/06/14 04:06:08;;;;;;;3.55;2.47;;;;;;;-144.65;100.00;64500.88;5030284;28;20065;-73
2022/06/14 04:08:57;;;;;;;6.97;2.22;;;;;;;-144.65;100.00;64500.88;5029581;28;20025;-73
2022/06/14 04:11:41;;;;;;;4.88;2.55;;;;;;;-144.65;100.00;64500.88;5036533;28;20056;-73
2022/06/14 04:14:19;;;;;;;3.63;2.33;;;;;;;-144.65;100.00;64500.88;5050089;28;20478;-73
2022/06/14 04:17:11;;;;;;;4.40;2.38;;;;;;;-144.65;100.00;64500.88;5045105;28;20110;-73
2022/06/14 04:19:39;;;;;;;2.67;1.90;;;;;;;-144.65;100.00;64500.88;5043030;28;20439;-73
2022/06/14 04:22:20;;;;;;;3.20;2.20;;;;;;;-144.65;100.00;64500.88;5049332;28;20048;-74
2022/06/14 04:24:51;;;;;;;6.93;2.47;;;;;;;-144.65;100.00;64500.88;5032139;28;20390;-73
2022/06/14 04:27:21;;;;;;;4.50;2.85;;;;;;;-144.65;100.00;64500.88;5049742;28;20129;-73
2022/06/14 04:29:56;;;;;;;3.60;2.10;;;;;;;-144.65;100.00;64500.88;5049709;28;20043;-73
2022/06/14 04:33:17;;;;;;;6.35;2.50;;;;;;;-144.65;100.00;64500.88;5050431;28;20498;-73
2022/06/14 04:35:58;;;;;;;3.92;2.20;;;;;;;-144.65;100.00;64500.88;5011842;28;20501;-73
2022/06/14 04:38:35;;;;;;;3.22;2.10;;;;;;;-144.65;100.00;64500.88;5026007;28;20033;-73
2022/06/14 04:41:12;;;;;;;3.78;2.35;;;;;;;-144.65;100.00;64500.88;5028955;28;20045;-73
2022/06/14 04:43:47;;;;;;;3.53;2.17;;;;;;;-144.65;100.00;64500.88;5011944;28;20034;-73
2022/06/14 04:46:18;;;;;;;3.85;2.35;;;;;;;-144.65;100.00;64500.88;5028267;28;20034;-71
2022/06/14 04:49:05;;;;;;;3.45;2.30;;;;;;;-144.65;100.00;64500.88;5011829;28;20107;-71
2022/06/14 04:51:46;;;;;;;4.70;2.17;;;;;;;-144.65;100.00;64500.88;5029092;28;20120;-75
2022/06/14 04:54:27;;;;;;;4.90;2.42;;;;;;;-144.65;100.00;64500.88;5031763;28;20034;-74
2022/06/14 04:57:09;;;;;;;3.17;1.95;;;;;;;-144.65;100.00;64500.88;5012312;28;20026;-74
2022/06/14 04:59:46;;;;;;;6.18;2.00;;;;;;;-144.65;100.00;64500.88;5030212;28;20068;-74
2022/06/14 05:02:32;;;;;;;3.45;1.98;;;;;;;-144.65;100.00;64500.88;5011712;28;20029;-78
2022/06/14 05:05:04;;;;;;;4.25;2.08;;;;;;;-144.65;100.00;64500.88;5043676;28;20083;-74
2022/06/14 05:07:36;;;;;;;3.67;2.28;;;;;;;-144.65;100.00;64500.88;5050447;28;20057;-74
2022/06/14 05:10:10;;;;;;;3.55;2.10;;;;;;;-144.65;100.00;64500.88;5049736;28;20032;-76
2022/06/14 05:12:52;;;;;;;3.20;1.92;;;;;;;-144.65;100.00;64500.88;5054334;28;20494;-75
2022/06/14 05:15:27;;;;;;;4.05;1.92;;;;;;;-144.65;100.00;64500.88;5027008;28;20104;-75
2022/06/14 05:17:59;;;;;;;7.13;2.30;;;;;;;-144.65;100.00;64500.88;5042631;28;20390;-76
2022/06/14 05:20:37;;;;;;;4.47;2.22;;;;;;;-144.65;100.00;64500.88;5040753;28;20036;-75
2022/06/14 05:23:10;;;;;;;3.08;2.10;;;;;;;-144.65;100.00;64500.88;5040380;28;20029;-77
2022/06/14 05:25:46;;;;;;;4.72;2.28;;;;;;;-144.65;100.00;64500.88;5040585;28;20029;-76
2022/06/14 05:28:15;;;;;;;4.03;2.50;;;;;;;-144.65;100.00;64500.88;5042652;28;20037;-77
2022/06/14 05:31:09;;;;;;;2.53;1.90;;;;;;;-144.65;100.00;64500.88;5041366;28;20029;-76
2022/06/14 05:34:03;;;;;;;3.47;2.08;;;;;;;-144.65;100.00;64500.88;5047084;28;20033;-76
2022/06/14 05:36:48;;;;;;;3.05;1.92;;;;;;;-144.65;100.00;64500.88;5026130;28;20124;-76
2022/06/14 05:39:54;;;;;;;4.65;2.25;;;;;;;-144.65;100.00;64500.88;5062955;28;20397;-75
2022/06/14 05:42:22;;;;;;;3.88;2.17;;;;;;;-144.65;100.00;64500.88;5051757;28;20036;-75
2022/06/14 05:44:53;;;;;;;2.97;2.03;;;;;;;-144.65;100.00;64500.88;5053067;28;20040;-75
2022/06/14 05:47:27;;;;;;;3.55;2.13;;;;;;;-144.65;100.00;64500.88;5050901;28;20443;-76
2022/06/14 05:49:59;;;;;;;3.13;2.00;;;;;;;-144.65;100.00;64500.88;5053050;28;20021;-77
2022/06/14 05:52:34;;;;;;;2.97;2.03;;;;;;;-144.65;100.00;64500.88;5056264;28;20092;-76
2022/06/14 05:55:22;;;;;;;3.35;2.00;;;;;;;-144.65;100.00;64500.88;5056187;28;20032;-76
2022/06/14 05:57:54;;;;;;;3.58;1.80;;;;;;;-144.65;100.00;64500.88;5052739;28;20039;-75
2022/06/14 06:00:28;;;;;;;4.95;2.10;;;;;;;-144.65;100.00;64500.88;5051992;28;20075;-74
2022/06/14 06:03:07;;;;;;;6.88;2.13;;;;;;;-144.65;100.00;64500.88;5051988;28;20021;-75
2022/06/14 06:05:39;;;;;;;3.17;2.00;;;;;;;-144.65;100.00;64500.88;5051905;28;20043;-75
2022/06/14 06:08:37;;;;;;;4.40;2.10;;;;;;;-144.65;100.00;64500.88;5049595;28;20087;-76
2022/06/14 06:11:08;;;;;;;5.50;2.47;;;;;;;-144.65;100.00;64500.88;5048390;28;20043;-76
2022/06/14 06:13:42;;;;;;;5.72;2.20;;;;;;;-144.65;100.00;64500.88;5052599;28;20029;-75
2022/06/14 06:16:15;;;;;;;4.05;2.05;;;;;;;-144.65;100.00;64500.88;5052386;28;20116;-76
2022/06/14 06:18:59;;;;;;;3.05;2.00;;;;;;;-144.65;100.00;64500.88;5052237;28;20024;-75
2022/06/14 06:21:40;;;;;;;2.90;2.15;;;;;;;-144.65;100.00;64500.88;5051478;28;20074;-75
2022/06/14 06:24:06;;;;;;;3.65;2.28;;;;;;;-144.65;100.00;64500.88;5022718;28;20060;-77
2022/06/14 06:26:36;;;;;;;4.05;2.13;;;;;;;-144.65;100.00;64500.88;5029532;28;20064;-76
2022/06/14 06:29:17;;;;;;;3.45;2.10;;;;;;;-144.65;100.00;64500.88;5042059;28;20124;-74
2022/06/14 06:31:45;;;;;;;3.33;2.20;;;;;;;-144.65;100.00;64500.88;5041863;28;20029;-75
2022/06/14 06:34:14;;;;;;;2.97;2.20;;;;;;;-144.65;100.00;64500.88;5042248;28;20135;-76
2022/06/14 06:37:03;;;;;;;4.78;2.30;;;;;;;-144.65;100.00;64500.88;5034923;28;20017;-78
2022/06/14 06:39:42;;;;;;;3.35;2.20;;;;;;;-144.65;100.00;64500.88;5039866;28;20445;-76
2022/06/14 06:42:29;;;;;;;4.40;2.20;;;;;;;-144.65;100.00;64500.88;5045654;28;20040;-75
2022/06/14 06:45:10;;;;;;;3.58;2.25;;;;;;;-144.65;100.00;64500.88;5041355;28;20040;-75
2022/06/14 06:47:40;;;;;;;3.00;1.98;;;;;;;-144.65;100.00;64500.88;5046144;28;20033;-75
2022/06/14 06:50:22;;;;;;;3.22;2.13;;;;;;;-144.65;100.00;64500.88;5039562;28;20025;-75
2022/06/14 06:53:04;;;;;;;4.68;2.35;;;;;;;-144.65;100.00;64500.88;5033912;28;20082;-75
2022/06/14 06:55:51;;;;;;;2.97;2.00;;;;;;;-144.65;100.00;64500.88;5036395;28;20025;-75
2022/06/14 06:58:38;;;;;;;3.22;2.10;;;;;;;-144.65;100.00;64500.88;5031889;28;20036;-75
2022/06/14 07:01:13;;;;;;;5.18;2.38;;;;;;;-144.65;100.00;64500.88;5027842;28;20541;-76
2022/06/14 07:03:43;;;;;;;;;;;;;;;-144.65;100.00;64500.88;5051610;28;20027;-75
2022/06/14 07:06:19;;;;;;;3.85;2.20;;;;;;;-144.65;100.00;64500.88;5051646;28;20451;-76
2022/06/14 07:08:52;;;;;;;;;;;;;;;-144.65;100.00;64500.88;5050576;28;20041;-74
2022/06/14 07:11:21;;;;;;;4.10;2.20;;;;;;;-144.65;100.00;64500.88;5050431;28;19905;-76
2022/06/14 07:14:02;;;;;;;4.57;2.20;;;;;;;-144.65;100.00;64500.88;5050604;28;20478;-75
2022/06/14 07:16:32;;;;;;;4.22;2.20;;;;;;;-144.65;100.00;64500.88;5050584;28;20170;-78
2022/06/14 07:19:33;;;;;;;3.17;2.00;;;;;;;-144.65;100.00;64500.88;5048589;28;20446;-75
2022/06/14 07:22:11;;;;;;;4.10;2.63;;;;;;;-144.65;100.00;64500.88;5032696;28;20041;-75
2022/06/14 07:24:53;;;;;;;4.05;2.05;;;;;;;-144.65;100.00;64500.88;5049370;28;20478;-76
2022/06/14 07:27:24;;;;;;;3.83;2.30;;;;;;;-144.65;100.00;64500.88;5044079;28;20036;-75
2022/06/14 07:29:58;;;;;;;3.72;2.65;;;;;;;-144.65;100.00;64500.88;5045925;28;20569;-73
2022/06/14 07:32:36;;;;;;;3.45;2.20;;;;;;;-144.65;100.00;64500.88;5040134;28;20032;-73
2022/06/14 07:35:02;;;;;;;6.05;2.42;;;;;;;-144.65;100.00;64500.88;5040349;28;20037;-74
2022/06/14 07:37:54;;;;;;;3.08;2.35;;;;;;;-144.65;100.00;64500.88;5027500;28;20031;-75
2022/06/14 07:40:23;;;;;;;4.22;2.03;;;;;;;-144.65;100.00;64500.88;5043880;28;20035;-77
2022/06/14 07:43:07;;;;;;;6.95;2.60;;;;;;;-144.65;100.00;64500.88;5044173;28;20052;-75
2022/06/14 07:45:36;;;;;;;4.43;2.47;;;;;;;-144.65;100.00;64500.88;5051105;28;20094;-76
2022/06/14 07:48:08;;;;;;;5.07;2.33;;;;;;;-144.65;100.00;64500.88;5031410;28;20064;-75
2022/06/14 07:50:58;;;;;;;3.65;2.22;;;;;;;-144.65;100.00;64500.88;5049751;28;20021;-77
2022/06/14 07:54:03;;;;;;;5.45;2.00;;;;;;;-144.65;100.00;64500.88;5050948;28;20111;-80
2022/06/14 07:56:38;;;;;;;3.75;2.10;;;;;;;-144.65;100.00;64500.88;5049843;28;20478;-76
2022/06/14 07:59:16;;;;;;;4.00;2.17;;;;;;;-144.65;100.00;64500.88;5050717;28;20575;-76
2022/06/14 08:01:58;;;;;;;4.75;2.25;;;;;;;-144.65;100.00;64500.88;5049478;28;20136;-78
2022/06/14 08:04:34;;;;;;;4.40;2.10;;;;;;;-144.65;100.00;64500.88;5050700;28;20463;-77
2022/06/14 08:07:02;;;;;;;3.08;2.00;;;;;;;-144.65;100.00;64500.88;5032449;28;20078;-77
2022/06/14 08:09:40;;;;;;;3.03;2.25;;;;;;;-144.65;100.00;64500.88;5032594;28;20037;-76
2022/06/14 08:12:13;;;;;;;5.13;2.20;;;;;;;-144.65;100.00;64500.88;5049531;28;20175;-77
2022/06/14 08:14:50;;;;;;;3.00;1.95;;;;;;;-144.65;100.00;64500.88;5050479;28;20035;-77
2022/06/14 08:17:43;;;;;;;7.60;3.28;;;;;;;-144.65;100.00;64500.88;5048462;28;20025;-77
2022/06/14 08:20:12;;;;;;;3.08;2.00;;;;;;;-144.65;100.00;64500.88;5024429;28;20452;-78
2022/06/14 08:22:42;;;;;;;3.38;2.17;;;;;;;-144.65;100.00;64500.88;5050178;28;20144;-78
2022/06/14 08:25:16;;;;;;;4.40;2.58;;;;;;;-144.65;100.00;64500.88;5050415;28;20108;-78
2022/06/14 08:27:48;;;;;;;3.23;2.10;;;;;;;-144.65;100.00;64500.88;5050534;28;20025;-77
2022/06/14 08:30:19;;;;;;;3.83;2.67;;;;;;;-144.65;100.00;64500.88;5050172;28;20384;-78
2022/06/14 08:32:51;;;;;;;3.47;2.42;;;;;;;-144.65;100.00;64500.88;5049899;28;20100;-75
2022/06/14 08:35:24;;;;;;;3.55;2.00;;;;;;;-144.65;100.00;64500.88;5048972;28;20094;-77
2022/06/14 08:37:58;;;;;;;4.95;2.33;;;;;;;-144.65;100.00;64500.88;5049937;28;20047;-78
2022/06/14 08:40:51;;;;;;;4.57;2.10;;;;;;;-144.65;100.00;64500.88;5050350;28;20040;-76
2022/06/14 08:43:23;;;;;;;2.75;1.95;;;;;;;-144.65;100.00;64500.88;5050542;28;20273;-76
2022/06/14 08:46:28;;;;;;;3.67;2.22;;;;;;;-144.65;100.00;64500.88;5050173;28;20474;-77
2022/06/14 08:49:08;;;;;;;7.13;2.20;;;;;;;-144.65;100.00;64500.88;5032883;28;20037;-75
2022/06/14 08:51:47;;;;;;;4.97;2.42;;;;;;;-144.65;100.00;64500.88;5038481;28;20428;-75
2022/06/14 08:54:30;;;;;;;3.30;2.30;;;;;;;-144.65;100.00;64500.88;5058873;28;20032;-75
2022/06/14 08:57:15;;;;;;;3.17;1.88;;;;;;;-144.65;100.00;64500.88;5052636;28;20033;-76
2022/06/14 08:59:49;;;;;;;3.63;2.45;;;;;;;-144.65;100.00;64500.88;5053808;28;20398;-77
2022/06/14 09:02:30;;;;;;;5.20;2.40;;;;;;;-144.65;100.00;64500.88;5054321;28;20036;-77
2022/06/14 09:05:13;;;;;;;3.58;2.20;;;;;;;-144.65;100.00;64500.88;5033729;28;20041;-78
2022/06/14 09:08:12;;;;;;;3.17;2.17;;;;;;;-144.65;100.00;64500.88;5034495;28;20030;-76
2022/06/14 09:10:59;;;;;;;3.60;2.20;;;;;;;-144.65;100.00;64500.88;5034240;28;20067;-77
2022/06/14 09:13:59;;;;;;;3.20;2.13;;;;;;;-144.65;100.00;64500.88;5034027;28;20025;-75
2022/06/14 09:17:01;;;;;;;3.40;2.10;;;;;;;-144.65;100.00;64500.88;5033566;28;20088;-77
2022/06/14 09:19:39;;;;;;;2.65;2.03;;;;;;;-144.65;100.00;64500.88;5033923;28;20032;-77
2022/06/14 09:22:07;;;;;;;4.30;2.20;;;;;;;-144.65;100.00;64500.88;5015779;28;20049;-78
2022/06/14 09:24:51;;;;;;;2.72;2.05;;;;;;;-144.65;100.00;64500.88;5033479;28;20033;-76
2022/06/14 09:27:29;;;;;;;3.30;2.10;;;;;;;-144.65;100.00;64500.88;5015838;28;20033;-76
2022/06/14 09:30:19;;;;;;;3.45;2.00;;;;;;;-144.65;100.00;64500.88;5015652;28;20040;-77
2022/06/14 09:35:52;;;;;;;6.05;2.20;;;;;;;-144.65;100.00;64500.88;5033787;28;20047;-76
2022/06/14 09:38:36;;;;;;;3.42;2.42;;;;;;;-144.65;100.00;64500.88;5033597;28;20383;-77
2022/06/14 09:41:05;;;;;;;7.53;2.63;;;;;;;-144.65;100.00;64500.88;5015553;28;20057;-77
2022/06/14 09:44:06;;;;;;;6.43;2.30;;;;;;;-144.65;100.00;64500.88;5033403;28;20017;-78
2022/06/14 09:46:55;;;;;;;3.00;2.05;;;;;;;-144.65;100.00;64500.88;5037417;28;20033;-77
2022/06/14 09:49:48;;;;;;;3.75;2.25;;;;;;;-144.65;100.00;64500.88;5005537;28;20486;-76
2022/06/14 09:52:44;;;;;;;5.75;2.42;;;;;;;-144.65;100.00;64500.88;5051927;28;20151;-77
2022/06/14 09:55:39;;;;;;;3.40;2.40;;;;;;;-144.65;100.00;64500.88;5051732;28;20029;-77
2022/06/14 09:58:26;;;;;;;2.63;1.90;;;;;;;-144.65;100.00;64500.88;5052173;28;20112;-77
2022/06/14 10:01:07;;;;;;;3.30;2.13;;;;;;;-144.65;100.00;64500.88;5051162;28;20474;-78
2022/06/14 10:04:01;;;;;;;5.10;2.40;;;;;;;-144.65;100.00;64500.88;5053185;28;20576;-76
2022/06/14 10:06:51;;;;;;;5.90;2.65;;;;;;;-144.65;100.00;64500.88;5015432;28;20041;-75
2022/06/14 10:09:55;;;;;;;3.42;2.38;;;;;;;-144.65;100.00;64500.88;5051117;28;20124;-77
2022/06/14 10:12:58;;;;;;;4.13;2.33;;;;;;;-144.65;100.00;64500.88;5048279;28;20398;-76
2022/06/14 10:15:44;;;;;;;3.03;2.10;;;;;;;-144.65;100.00;64500.88;5052519;28;20053;-77
2022/06/14 10:18:12;;;;;;;3.45;2.20;;;;;;;-144.65;100.00;64500.88;5052682;28;20021;-77
2022/06/14 10:21:02;;;;;;;4.78;2.55;;;;;;;-144.65;100.00;64500.88;5051318;28;20120;-77
2022/06/14 10:23:43;;;;;;;4.30;2.50;;;;;;;-144.65;100.00;64500.88;5051312;28;20081;-76
2022/06/14 10:29:38;;;;;;;4.55;2.60;;;;;;;-144.65;100.00;64500.88;5052388;28;20405;-77
2022/06/14 10:32:34;;;;;;;3.35;2.47;;;;;;;-144.65;100.00;64500.88;5052817;28;20063;-77
2022/06/14 10:35:19;;;;;;;4.38;2.30;;;;;;;-144.65;100.00;64500.88;5050726;28;20029;-76
2022/06/14 10:38:07;;;;;;;3.97;2.40;;;;;;;-144.65;100.00;64500.88;5052710;28;20135;-77
2022/06/14 10:40:53;;;;;;;3.90;2.53;;;;;;;-144.65;100.00;64500.88;5052431;28;20044;-76
2022/06/14 10:43:24;;;;;;;3.83;2.40;;;;;;;-144.65;100.00;64500.88;5045909;28;20040;-77
2022/06/14 10:45:57;;;;;;;7.55;2.10;;;;;;;-144.65;100.00;64500.88;5032648;28;20120;-76
2022/06/14 10:48:41;;;;;;;5.25;2.42;;;;;;;-144.65;100.00;64500.88;5031897;28;20033;-77
2022/06/14 10:51:24;;;;;;;5.63;2.53;;;;;;;-144.65;100.00;64500.88;5032257;28;20208;-75
2022/06/14 10:54:05;;;;;;;4.78;2.47;;;;;;;-144.65;100.00;64500.88;5031840;28;20033;-74
2022/06/14 10:56:39;;;;;;;5.45;2.50;;;;;;;-144.65;100.00;64500.88;5013741;28;20507;-76
2022/06/14 10:59:23;;;;;;;11.70;2.70;;;;;;;-144.65;100.00;64500.88;5014257;28;20029;-77
2022/06/14 11:02:17;;;;;;;6.78;3.42;;;;;;;-144.65;100.00;64500.88;5032351;28;20036;-75
2022/06/14 11:05:01;;;;;;;3.97;2.72;;;;;;;-144.65;100.00;64500.88;5031848;28;20033;-75
2022/06/14 11:08:05;;;;;;;4.05;2.50;;;;;;;-144.65;100.00;64500.88;5019212;28;20128;-76
2022/06/14 11:10:50;;;;;;;4.85;3.05;;;;;;;-144.65;100.00;64500.88;5000208;28;20128;-76
2022/06/14 11:13:24;;;;;;;6.40;2.77;;;;;;;-144.65;100.00;64500.88;5031955;28;20524;-75
2022/06/14 11:15:56;;;;;;;5.63;2.67;;;;;;;-144.65;100.00;64500.88;5030986;28;20074;-75
2022/06/14 11:18:37;;;;;;;3.30;2.30;;;;;;;-144.65;100.00;64500.88;5031797;28;20026;-77
2022/06/14 11:21:33;;;;;;;3.28;2.45;;;;;;;-144.65;100.00;64500.88;5049304;28;20057;-75
2022/06/14 11:24:03;;;;;;;;;;;;;;;-144.65;100.00;64500.88;5050712;28;20024;-74
2022/06/14 11:26:56;;;;;;;6.45;2.50;;;;;;;-144.65;100.00;64500.88;5033672;28;19917;-72
2022/06/14 11:29:37;;;;;;;7.43;2.95;;;;;;;-144.65;100.00;64500.88;5036191;28;20037;-71
2022/06/14 11:32:28;;;;;;;4.63;2.67;;;;;;;-144.65;100.00;64500.88;5049254;28;20386;-72
2022/06/14 11:35:04;;;;;;;6.25;2.95;;;;;;;-144.65;100.00;64500.88;5049150;28;20028;-73
2022/06/14 11:37:48;;;;;;;6.25;2.70;;;;;;;-144.65;100.00;64500.88;5033706;28;20032;-71
2022/06/14 11:40:24;;;;;;;4.05;2.70;;;;;;;-144.65;100.00;64500.88;5043882;28;20478;-73
2022/06/14 11:43:14;;;;;;;4.10;2.35;;;;;;;-144.65;100.00;64500.88;5046672;28;20033;-72
2022/06/14 11:45:59;;;;;;;2.97;2.00;;;;;;;-144.65;100.00;64500.88;5044541;28;20063;-72
2022/06/14 11:48:43;;;;;;;3.40;2.38;;;;;;;-144.65;100.00;64500.88;5030700;28;20017;-71
2022/06/14 11:51:15;;;;;;;9.88;2.50;;;;;;;-144.65;100.00;64500.88;5035718;28;20070;-72
2022/06/14 11:53:59;;;;;;;5.32;2.63;;;;;;;-144.65;100.00;64500.88;5038153;28;20025;-73
2022/06/14 11:56:30;;;;;;;4.50;2.58;;;;;;;-144.65;100.00;64500.88;5044240;28;20076;-71
2022/06/14 11:59:36;;;;;;;4.00;2.50;;;;;;;-144.65;100.00;64500.88;5026768;28;20087;-71
2022/06/14 12:02:02;;;;;;;4.85;2.60;;;;;;;-144.65;100.00;64500.88;5042073;28;20044;-72
2022/06/14 12:04:39;;;;;;;3.90;2.60;;;;;;;-144.65;100.00;64500.88;5035551;28;20042;-74
2022/06/14 12:07:20;;;;;;;3.70;2.25;;;;;;;-144.65;100.00;64500.88;5039290;28;20029;-74
2022/06/14 12:09:54;;;;;;;4.90;2.80;;;;;;;-144.65;100.00;64500.88;5033576;28;20025;-72
2022/06/14 12:12:39;;;;;;;5.03;2.33;;;;;;;-144.65;100.00;64500.88;5034816;28;20116;-74